Time;durP1;ratioP1;P1;durP2;ratioP2;P2;SDS_P1;SDS_P2;PMS_P1;PMS_P2;Temp;Humidity;BMP_temperature;BMP_pressure;BME280_temperature;BME280_humidity;BME280_pressure;Samples;Min_cycle;Max_cycle;Signal;HPM_P1;HPM_P2
2023/09/28 00:00:51;;;;;;;4.97;4.57;;;17.20;99.90;;;;;;10386759;28;20203;-80
2023/09/28 00:05:58;;;;;;;5.40;5.00;;;17.20;99.90;;;;;;10415902;28;20246;-80
2023/09/28 00:11:03;;;;;;;5.17;4.77;;;17.20;99.90;;;;;;10386896;28;20213;-80
2023/09/28 00:16:18;;;;;;;6.40;5.80;;;17.20;99.90;;;;;;10402254;28;20645;-79
2023/09/28 00:21:30;;;;;;;5.27;4.70;;;17.20;99.90;;;;;;10412461;28;20203;-79
2023/09/28 00:26:42;;;;;;;6.57;5.13;;;17.20;99.90;;;;;;10386974;28;20223;-79
2023/09/28 00:31:45;;;;;;;5.87;5.30;;;17.20;99.90;;;;;;10421281;28;20206;-79
2023/09/28 00:36:49;;;;;;;5.80;5.30;;;17.20;99.90;;;;;;10393670;28;20234;-79
2023/09/28 00:41:51;;;;;;;5.47;5.00;;;17.20;99.90;;;;;;10363109;28;20199;-79
2023/09/28 00:46:53;;;;;;;5.23;4.93;;;17.20;99.90;;;;;;10375088;28;20226;-80
2023/09/28 00:51:57;;;;;;;5.47;5.07;;;17.20;99.90;;;;;;10422097;28;20620;-80
2023/09/28 00:56:59;;;;;;;6.87;5.60;;;17.10;99.90;;;;;;10390868;28;20286;-79
2023/09/28 01:02:01;;;;;;;5.20;4.80;;;17.10;99.90;;;;;;10394285;28;20231;-80
2023/09/28 01:07:07;;;;;;;5.63;5.13;;;17.10;99.90;;;;;;10379194;28;20244;-79
2023/09/28 01:12:12;;;;;;;5.77;5.27;;;17.10;99.90;;;;;;10390822;28;20220;-80
2023/09/28 01:17:16;;;;;;;5.43;4.97;;;17.10;99.90;;;;;;10415513;28;20223;-79
2023/09/28 01:22:19;;;;;;;5.67;5.17;;;17.10;99.90;;;;;;10386344;28;20206;-80
2023/09/28 01:27:21;;;;;;;6.17;5.57;;;17.10;99.90;;;;;;10406683;28;20247;-79
2023/09/28 01:32:25;;;;;;;5.43;5.03;;;17.00;99.90;;;;;;10362608;28;20583;-79
2023/09/28 01:37:34;;;;;;;5.53;5.13;;;17.00;99.90;;;;;;10391730;28;20234;-79
2023/09/28 01:42:36;;;;;;;6.40;5.90;;;16.90;99.90;;;;;;10365155;28;20202;-79
2023/09/28 01:47:38;;;;;;;5.20;4.70;;;16.90;99.90;;;;;;10370135;28;20230;-79
2023/09/28 01:52:41;;;;;;;5.57;5.03;;;16.90;99.90;;;;;;10399916;28;20210;-79
2023/09/28 01:57:43;;;;;;;5.63;5.13;;;16.90;99.90;;;;;;10408175;28;20226;-80
2023/09/28 02:02:47;;;;;;;5.10;4.60;;;16.90;99.90;;;;;;10410903;28;20270;-79
2023/09/28 02:07:51;;;;;;;5.60;5.03;;;16.90;99.90;;;;;;10430811;28;20253;-80
2023/09/28 02:12:56;;;;;;;8.87;4.57;;;16.90;99.90;;;;;;10390727;28;20207;-80
2023/09/28 02:17:58;;;;;;;5.93;4.80;;;16.90;99.90;;;;;;10427603;28;20643;-79
2023/09/28 02:23:02;;;;;;;6.70;6.10;;;16.90;99.90;;;;;;10397378;28;20270;-79
2023/09/28 02:28:04;;;;;;;5.70;5.30;;;16.90;99.90;;;;;;10413258;28;20191;-79
2023/09/28 02:33:07;;;;;;;5.63;5.23;;;16.90;99.90;;;;;;10372994;28;20652;-80
2023/09/28 02:38:10;;;;;;;6.73;5.40;;;16.80;99.90;;;;;;10370800;28;20231;-80
2023/09/28 02:43:13;;;;;;;5.30;4.90;;;16.80;99.90;;;;;;10391811;28;20218;-79
2023/09/28 02:48:15;;;;;;;6.60;6.00;;;16.80;99.90;;;;;;10418620;28;20617;-80
2023/09/28 02:53:18;;;;;;;6.00;5.50;;;16.70;99.90;;;;;;10365343;28;20219;-80
2023/09/28 02:58:22;;;;;;;5.73;5.33;;;16.70;99.90;;;;;;10411195;28;20225;-80
2023/09/28 03:03:24;;;;;;;6.50;6.00;;;16.70;99.90;;;;;;10411652;28;20841;-79
2023/09/28 03:08:30;;;;;;;6.30;5.70;;;16.70;99.90;;;;;;10369007;28;20197;-79
2023/09/28 03:13:32;;;;;;;5.67;5.20;;;16.80;99.90;;;;;;10420473;28;20619;-78
2023/09/28 03:18:39;;;;;;;6.60;6.00;;;16.70;99.90;;;;;;10404112;28;20221;-80
2023/09/28 03:23:42;;;;;;;6.47;5.77;;;16.70;99.90;;;;;;10393221;28;20752;-80
2023/09/28 03:28:44;;;;;;;6.13;5.63;;;16.80;99.90;;;;;;10427876;28;20199;-79
2023/09/28 03:33:46;;;;;;;7.60;5.30;;;16.80;99.90;;;;;;10406982;28;20227;-80
2023/09/28 03:38:50;;;;;;;5.50;5.10;;;16.80;99.90;;;;;;10389674;28;20231;-80
2023/09/28 03:43:52;;;;;;;5.30;4.90;;;16.80;99.90;;;;;;10424815;28;20257;-80
2023/09/28 03:48:54;;;;;;;5.77;5.27;;;16.80;99.90;;;;;;10389795;28;20330;-80
2023/09/28 03:53:58;;;;;;;5.10;4.70;;;16.80;99.90;;;;;;10409724;28;20226;-80
2023/09/28 03:59:00;;;;;;;5.73;5.33;;;16.80;99.90;;;;;;10373354;28;20238;-79
2023/09/28 04:04:02;;;;;;;5.27;4.87;;;16.80;99.90;;;;;;10410388;28;20227;-80
2023/09/28 04:09:07;;;;;;;4.83;4.40;;;16.80;99.90;;;;;;10388545;28;20195;-80
2023/09/28 04:14:09;;;;;;;5.60;5.10;;;16.80;99.90;;;;;;10450345;28;20234;-79
2023/09/28 04:19:11;;;;;;;5.23;4.83;;;16.80;99.90;;;;;;10361051;28;20745;-80
2023/09/28 04:24:15;;;;;;;4.70;4.30;;;16.80;99.90;;;;;;10417372;28;20246;-80
2023/09/28 04:29:17;;;;;;;5.97;5.47;;;16.80;99.90;;;;;;10418298;22;20231;-79
2023/09/28 04:34:19;;;;;;;8.53;7.63;;;16.80;99.90;;;;;;10396022;28;20233;-80
2023/09/28 04:39:24;;;;;;;5.90;4.97;;;16.80;99.90;;;;;;10416659;28;20233;-81
2023/09/28 04:44:27;;;;;;;7.27;4.63;;;16.80;99.90;;;;;;10385331;28;20724;-81
2023/09/28 04:49:29;;;;;;;5.47;5.07;;;16.80;99.90;;;;;;10372807;28;20303;-81
2023/09/28 04:54:35;;;;;;;5.33;4.83;;;16.80;99.90;;;;;;10349609;28;20208;-80
2023/09/28 04:59:38;;;;;;;5.93;5.43;;;16.80;99.90;;;;;;10329310;28;20224;-80
2023/09/28 05:04:40;;;;;;;6.43;5.83;;;16.80;99.90;;;;;;10414693;28;20205;-81
2023/09/28 05:09:44;;;;;;;5.10;4.70;;;16.80;99.90;;;;;;10370205;28;20215;-79
2023/09/28 05:14:46;;;;;;;5.80;5.20;;;16.80;99.90;;;;;;10378543;28;20238;-81
2023/09/28 05:19:48;;;;;;;6.57;5.97;;;16.80;99.90;;;;;;10378417;28;20231;-81
2023/09/28 05:24:53;;;;;;;6.10;5.60;;;16.80;99.90;;;;;;10414303;28;20206;-81
2023/09/28 05:29:55;;;;;;;5.50;5.10;;;16.80;99.90;;;;;;10417481;28;20230;-81
2023/09/28 05:34:57;;;;;;;6.67;5.40;;;16.90;99.90;;;;;;10379550;28;20218;-81
2023/09/28 05:40:02;;;;;;;6.67;4.53;;;16.90;99.90;;;;;;10413235;28;20309;-80
2023/09/28 05:45:06;;;;;;;5.03;4.60;;;16.90;99.90;;;;;;10414621;28;20286;-81
2023/09/28 05:50:09;;;;;;;6.50;5.20;;;17.00;99.90;;;;;;10416374;28;20223;-81
2023/09/28 05:55:12;;;;;;;7.83;5.63;;;17.00;99.90;;;;;;10331713;28;20709;-81
2023/09/28 06:00:16;;;;;;;6.30;5.70;;;17.10;99.90;;;;;;10420655;28;20222;-79
2023/09/28 06:05:18;;;;;;;5.73;5.23;;;17.10;99.90;;;;;;10381470;28;20207;-81
2023/09/28 06:10:22;;;;;;;5.50;5.00;;;17.20;99.90;;;;;;10368178;28;20227;-81
2023/09/28 06:15:24;;;;;;;5.60;5.20;;;17.20;99.90;;;;;;10412608;28;20199;-81
2023/09/28 06:20:26;;;;;;;7.63;5.37;;;17.30;99.90;;;;;;10424274;28;20230;-80
2023/09/28 06:25:30;;;;;;;6.40;5.80;;;17.30;99.90;;;;;;10387630;28;20216;-81
2023/09/28 06:30:32;;;;;;;6.30;5.70;;;17.40;99.90;;;;;;10382329;28;20603;-81
2023/09/28 06:35:34;;;;;;;10.63;5.50;;;17.50;99.90;;;;;;10369972;28;20534;-81
2023/09/28 06:40:39;;;;;;;6.10;4.97;;;17.50;99.90;;;;;;10383095;28;20315;-81
2023/09/28 06:45:41;;;;;;;7.13;6.43;;;17.70;99.90;;;;;;10408898;28;20277;-81
2023/09/28 06:50:43;;;;;;;5.73;5.13;;;17.80;99.90;;;;;;10420003;28;20225;-81
2023/09/28 06:55:47;;;;;;;6.60;5.93;;;17.80;99.90;;;;;;10388623;28;20234;-80
2023/09/28 07:00:49;;;;;;;6.07;5.03;;;17.80;99.90;;;;;;10383433;28;20608;-80
2023/09/28 07:05:51;;;;;;;6.17;5.37;;;17.80;99.90;;;;;;10414705;28;20262;-81
2023/09/28 07:10:55;;;;;;;5.73;5.23;;;17.80;99.90;;;;;;10420524;28;20238;-81
2023/09/28 07:15:57;;;;;;;5.73;4.73;;;17.80;99.90;;;;;;10390531;28;20204;-81
2023/09/28 07:20:59;;;;;;;5.80;5.30;;;18.00;99.90;;;;;;10404981;28;20265;-81
2023/09/28 07:26:03;;;;;;;5.10;4.70;;;18.20;99.90;;;;;;10392381;28;20230;-81
2023/09/28 07:31:06;;;;;;;6.50;5.07;;;18.30;99.90;;;;;;10384660;28;20667;-81
2023/09/28 07:36:08;;;;;;;5.70;5.10;;;18.40;99.90;;;;;;10410818;28;20676;-81
2023/09/28 07:41:12;;;;;;;5.67;5.17;;;18.30;99.90;;;;;;10413017;28;20230;-80
2023/09/28 07:46:14;;;;;;;6.10;5.60;;;18.30;99.90;;;;;;10407893;28;20207;-81
2023/09/28 07:51:18;;;;;;;5.43;4.90;;;18.20;99.90;;;;;;10413884;28;20780;-81
2023/09/28 07:56:21;;;;;;;7.50;5.40;;;18.20;99.90;;;;;;10390433;28;20649;-78
2023/09/28 08:01:25;;;;;;;8.60;6.27;;;18.20;99.90;;;;;;10384145;28;20289;-80
2023/09/28 08:06:27;;;;;;;6.47;5.87;;;18.20;99.90;;;;;;10408457;28;20229;-80
2023/09/28 08:11:32;;;;;;;7.30;5.77;;;18.20;99.90;;;;;;10414035;28;20242;-81
2023/09/28 08:16:34;;;;;;;10.00;6.30;;;18.20;99.90;;;;;;10392194;28;20663;-81
2023/09/28 08:21:37;;;;;;;6.33;5.83;;;18.20;99.90;;;;;;10387625;28;20361;-80
2023/09/28 08:26:41;;;;;;;6.80;5.87;;;18.30;99.90;;;;;;10393403;28;20202;-81
2023/09/28 08:31:43;;;;;;;7.47;6.77;;;18.40;99.90;;;;;;10406289;28;20235;-81
2023/09/28 08:36:45;;;;;;;7.20;6.60;;;18.40;99.90;;;;;;10392125;28;20508;-81
2023/09/28 08:41:55;;;;;;;5.87;5.37;;;18.40;99.90;;;;;;10393953;28;20715;-81
2023/09/28 08:47:00;;;;;;;5.90;5.37;;;18.40;99.90;;;;;;10373865;28;20203;-81
2023/09/28 08:52:03;;;;;;;8.10;6.40;;;18.30;99.90;;;;;;10394744;28;20813;-81
2023/09/28 08:57:07;;;;;;;9.60;6.83;;;18.30;99.90;;;;;;10393124;28;20210;-81
2023/09/28 09:02:10;;;;;;;7.10;6.53;;;18.40;99.90;;;;;;10407473;28;20250;-81
2023/09/28 09:07:12;;;;;;;8.47;7.67;;;18.40;99.90;;;;;;10395196;28;20207;-82
2023/09/28 09:12:16;;;;;;;8.07;7.07;;;18.40;99.90;;;;;;10389855;28;20664;-83
2023/09/28 09:17:18;;;;;;;10.20;5.80;;;18.40;99.90;;;;;;10403952;28;20713;-82
2023/09/28 09:22:28;;;;;;;7.63;6.87;;;18.50;99.90;;;;;;10405485;28;20222;-82
2023/09/28 09:27:32;;;;;;;7.37;6.27;;;18.60;99.90;;;;;;10392894;28;20203;-82
2023/09/28 09:32:37;;;;;;;6.40;5.80;;;18.70;99.90;;;;;;10405983;28;20280;-82
2023/09/28 09:37:41;;;;;;;8.17;6.03;;;18.90;99.90;;;;;;10391274;28;20247;-82
2023/09/28 09:42:45;;;;;;;6.63;6.03;;;19.10;99.90;;;;;;10369278;28;20230;-82
2023/09/28 09:47:48;;;;;;;7.70;5.50;;;19.40;99.90;;;;;;10402898;28;20199;-80
2023/09/28 09:52:53;;;;;;;6.97;4.90;;;19.60;99.90;;;;;;10391494;28;20227;-82
2023/09/28 09:58:02;;;;;;;11.20;5.20;;;19.80;99.90;;;;;;10369273;28;20675;-81
2023/09/28 10:03:06;;;;;;;6.30;5.37;;;19.90;99.90;;;;;;10392132;28;20250;-81
2023/09/28 10:08:11;;;;;;;5.57;5.07;;;20.00;99.90;;;;;;10392953;28;20672;-82
2023/09/28 10:13:15;;;;;;;4.80;4.40;;;20.00;99.90;;;;;;10404029;28;20333;-82
2023/09/28 10:18:18;;;;;;;5.60;4.40;;;19.90;99.90;;;;;;10400865;28;20776;-82
2023/09/28 10:23:26;;;;;;;5.33;4.83;;;19.90;99.90;;;;;;10420406;28;20737;-82
2023/09/28 10:28:29;;;;;;;7.10;5.23;;;19.90;99.90;;;;;;10402780;28;20199;-82
2023/09/28 10:40:18;;;;;;;;;;;;;;;;;;;;;
2023/09/28 10:46:00;;;;;;;7.33;5.00;;;20.10;99.90;;;;;;10404611;28;20221;-81
2023/09/28 10:51:23;;;;;;;6.40;4.50;;;20.20;99.60;;;;;;10251008;28;20637;-81
2023/09/28 11:02:51;;;;;;;6.23;4.83;;;20.60;98.70;;;;;;10381134;28;20218;-81
2023/09/28 11:14:20;;;;;;;4.60;4.03;;;20.80;98.20;;;;;;10292866;28;20228;-81
2023/09/28 11:20:15;;;;;;;4.07;3.77;;;21.00;97.70;;;;;;10255588;28;20224;-81
2023/09/28 11:32:17;;;;;;;3.70;3.40;;;21.00;98.30;;;;;;10375972;28;20231;-81
2023/09/28 11:38:09;;;;;;;3.90;3.50;;;20.90;97.60;;;;;;10419042;28;20245;-81
2023/09/28 11:43:27;;;;;;;3.50;3.20;;;20.90;97.50;;;;;;10377676;28;20651;-81
2023/09/28 11:49:16;;;;;;;4.23;3.37;;;20.90;96.90;;;;;;10401775;28;20218;-81
2023/09/28 11:54:32;;;;;;;3.67;3.37;;;21.00;96.10;;;;;;10379725;28;20276;-80
2023/09/28 12:00:02;;;;;;;4.33;3.87;;;21.00;96.50;;;;;;10404328;28;20382;-81
2023/09/28 12:05:14;;;;;;;3.50;3.20;;;21.00;95.80;;;;;;10360620;28;20207;-81
2023/09/28 12:10:19;;;;;;;4.70;4.20;;;21.00;97.00;;;;;;10389054;28;20791;-81
2023/09/28 12:15:21;;;;;;;3.40;3.10;;;20.90;96.60;;;;;;10389881;28;20282;-81
2023/09/28 12:20:23;;;;;;;3.50;3.13;;;20.90;96.30;;;;;;10390397;28;20231;-81
2023/09/28 12:25:28;;;;;;;3.83;3.17;;;20.80;96.50;;;;;;10419606;28;20197;-81
2023/09/28 12:30:30;;;;;;;4.00;3.00;;;20.80;95.70;;;;;;10397927;28;20720;-81
2023/09/28 12:35:32;;;;;;;2.90;2.63;;;21.10;93.90;;;;;;10393192;28;20208;-81
2023/09/28 12:40:36;;;;;;;2.73;2.50;;;21.20;95.00;;;;;;10405965;28;20222;-81
2023/09/28 12:45:38;;;;;;;3.23;3.03;;;21.20;95.00;;;;;;10406297;28;20205;-81
2023/09/28 12:50:40;;;;;;;3.13;2.77;;;21.30;93.90;;;;;;10400494;28;20276;-81
2023/09/28 12:55:44;;;;;;;3.43;3.03;;;21.30;94.40;;;;;;10369189;28;20246;-81
2023/09/28 13:00:47;;;;;;;3.00;2.70;;;21.30;95.10;;;;;;10398716;28;20273;-80
2023/09/28 13:05:49;;;;;;;2.70;2.50;;;21.30;94.40;;;;;;10399060;28;20215;-80
2023/09/28 13:10:55;;;;;;;2.90;2.70;;;21.30;94.60;;;;;;10432211;23;20660;-82
2023/09/28 13:16:00;;;;;;;3.10;2.83;;;21.30;93.60;;;;;;10412703;28;20210;-81
2023/09/28 13:21:02;;;;;;;4.70;3.70;;;21.40;94.00;;;;;;10411715;28;20285;-80
2023/09/28 13:26:05;;;;;;;3.50;3.20;;;21.40;93.70;;;;;;10387538;28;20701;-81
2023/09/28 13:31:08;;;;;;;2.70;2.50;;;21.50;93.30;;;;;;10398192;28;20218;-81
2023/09/28 13:36:12;;;;;;;2.90;2.60;;;21.60;93.60;;;;;;10392599;28;20199;-81
2023/09/28 13:41:17;;;;;;;2.60;2.40;;;21.60;93.70;;;;;;10391036;28;20214;-81
2023/09/28 13:46:19;;;;;;;2.40;2.30;;;21.60;95.00;;;;;;10375391;28;20218;-81
2023/09/28 13:51:21;;;;;;;4.87;2.30;;;21.50;95.70;;;;;;10382673;28;20221;-81
2023/09/28 13:56:26;;;;;;;2.53;2.23;;;21.40;95.70;;;;;;10412546;28;20229;-81
2023/09/28 14:01:29;;;;;;;3.00;2.40;;;21.50;94.70;;;;;;10415318;28;20226;-81
2023/09/28 14:06:31;;;;;;;2.70;2.50;;;21.50;94.90;;;;;;10395607;28;20195;-82
2023/09/28 14:11:35;;;;;;;2.43;2.33;;;21.50;94.80;;;;;;10438101;28;20218;-81
2023/09/28 14:16:37;;;;;;;2.63;2.43;;;21.50;95.10;;;;;;10418746;28;20285;-81
2023/09/28 14:21:39;;;;;;;2.53;2.33;;;21.50;95.20;;;;;;10388812;28;20314;-81
2023/09/28 14:26:43;;;;;;;2.40;2.23;;;21.60;94.30;;;;;;10420021;28;20298;-81
2023/09/28 14:31:45;;;;;;;2.50;2.30;;;21.70;94.00;;;;;;10403571;28;20219;-81
2023/09/28 14:36:47;;;;;;;2.87;2.67;;;21.80;93.30;;;;;;10380983;28;20203;-81
2023/09/28 14:41:50;;;;;;;4.47;2.50;;;22.00;92.60;;;;;;10391179;28;20234;-81
2023/09/28 14:46:53;;;;;;;3.37;3.07;;;22.10;94.20;;;;;;10400126;28;20256;-81
2023/09/28 14:51:55;;;;;;;2.20;2.10;;;21.90;95.40;;;;;;10400228;28;20215;-81
2023/09/28 14:56:58;;;;;;;2.40;2.20;;;21.80;95.90;;;;;;10382664;28;20237;-81
2023/09/28 15:02:02;;;;;;;2.40;2.10;;;21.70;96.50;;;;;;10399844;28;20226;-80
2023/09/28 15:07:04;;;;;;;2.40;2.20;;;21.60;96.70;;;;;;10406324;28;20207;-81
2023/09/28 15:12:07;;;;;;;2.30;2.17;;;21.60;94.70;;;;;;10398179;28;20219;-81
2023/09/28 15:17:10;;;;;;;1.83;1.73;;;21.60;94.90;;;;;;10399134;28;20217;-81
2023/09/28 15:22:12;;;;;;;2.27;2.10;;;21.60;95.30;;;;;;10400704;28;20651;-81
2023/09/28 15:27:15;;;;;;;2.20;2.00;;;21.60;95.20;;;;;;10399932;28;20659;-81
2023/09/28 15:32:17;;;;;;;1.90;1.80;;;21.60;94.00;;;;;;10392390;28;20249;-81
2023/09/28 15:37:21;;;;;;;1.70;1.60;;;21.60;94.90;;;;;;10398637;28;20215;-81
2023/09/28 15:42:25;;;;;;;2.03;1.87;;;21.50;95.00;;;;;;10407401;28;20741;-81
2023/09/28 15:47:29;;;;;;;2.50;2.30;;;21.50;93.90;;;;;;10405222;28;20674;-81
2023/09/28 15:52:32;;;;;;;2.97;2.30;;;21.50;93.80;;;;;;10390996;28;20211;-81
2023/09/28 15:57:36;;;;;;;3.67;3.03;;;21.80;92.90;;;;;;10374520;28;20203;-81
2023/09/28 16:02:38;;;;;;;3.13;2.53;;;21.90;93.40;;;;;;10405019;28;20226;-81
2023/09/28 16:07:40;;;;;;;3.37;3.07;;;21.90;94.50;;;;;;10403883;28;20207;-82
2023/09/28 16:12:44;;;;;;;3.07;2.80;;;21.80;95.20;;;;;;10389534;28;20632;-82
2023/09/28 16:17:46;;;;;;;4.40;4.00;;;21.70;95.50;;;;;;10377028;28;20572;-82
2023/09/28 16:22:48;;;;;;;3.20;3.00;;;21.60;95.80;;;;;;10394556;28;20231;-82
2023/09/28 16:27:52;;;;;;;2.57;2.30;;;21.60;95.60;;;;;;10380287;28;20230;-82
2023/09/28 16:32:54;;;;;;;2.50;2.30;;;21.70;95.60;;;;;;10417232;28;20218;-81
2023/09/28 16:37:57;;;;;;;2.67;2.47;;;21.60;95.30;;;;;;10414114;28;20290;-82
2023/09/28 16:43:00;;;;;;;3.40;2.80;;;21.60;95.30;;;;;;10377189;28;20301;-81
2023/09/28 16:48:03;;;;;;;3.47;2.63;;;21.60;95.50;;;;;;10393280;28;20199;-81
2023/09/28 16:53:06;;;;;;;2.80;2.60;;;21.60;95.70;;;;;;10386890;28;20247;-81
2023/09/28 16:58:09;;;;;;;3.50;3.20;;;21.50;96.00;;;;;;10393624;28;20712;-82
2023/09/28 17:03:11;;;;;;;3.20;2.83;;;21.50;96.30;;;;;;10399566;28;20226;-82
2023/09/28 17:08:14;;;;;;;3.20;3.00;;;21.40;96.50;;;;;;10413421;28;20203;-82
2023/09/28 17:13:17;;;;;;;3.33;3.03;;;21.40;96.70;;;;;;10387251;28;20211;-82
2023/09/28 17:18:19;;;;;;;3.40;3.10;;;21.30;96.90;;;;;;10407317;28;20238;-81
2023/09/28 17:23:22;;;;;;;4.53;3.27;;;21.20;97.10;;;;;;10390732;28;20227;-81
2023/09/28 17:28:25;;;;;;;5.20;3.37;;;21.10;97.50;;;;;;10385485;28;20270;-81
2023/09/28 17:33:27;;;;;;;3.50;3.20;;;20.90;97.50;;;;;;10416014;28;20270;-82
2023/09/28 17:38:29;;;;;;;5.07;4.50;;;20.80;97.90;;;;;;10390506;28;20282;-82
2023/09/28 18:11:20;;;;;;;4.70;4.20;;;20.40;98.50;;;;;;10162634;29;20238;-81
2023/09/28 21:45:12;;;;;;;4.10;3.80;;;18.60;99.90;;;;;;6566941;26;20282;-80
2023/09/28 22:34:09;;;;;;;4.50;4.10;;;18.30;99.90;;;;;;10437322;22;20234;-81
2023/09/28 22:39:11;;;;;;;4.80;4.33;;;18.30;99.80;;;;;;10409479;28;20358;-81
2023/09/28 22:44:13;;;;;;;4.50;4.10;;;18.30;99.90;;;;;;10397429;28;20231;-80
2023/09/28 22:49:17;;;;;;;5.03;4.23;;;18.30;99.90;;;;;;10365335;28;20195;-81
2023/09/28 22:54:20;;;;;;;5.37;4.80;;;18.30;99.90;;;;;;10413181;28;20231;-81
2023/09/28 22:59:22;;;;;;;4.63;4.23;;;18.30;99.90;;;;;;10410639;28;20191;-81
2023/09/28 23:04:26;;;;;;;4.97;4.50;;;18.30;99.90;;;;;;10397215;28;20222;-81
2023/09/28 23:09:28;;;;;;;4.60;4.07;;;18.30;99.90;;;;;;10412425;28;20206;-81
2023/09/28 23:14:31;;;;;;;5.87;5.40;;;18.30;99.90;;;;;;10374795;28;20285;-81
2023/09/28 23:19:35;;;;;;;4.70;4.27;;;18.30;99.90;;;;;;10396000;28;20289;-81
2023/09/28 23:24:38;;;;;;;4.20;3.90;;;18.20;99.90;;;;;;10423164;28;20258;-81
2023/09/28 23:29:41;;;;;;;4.93;4.53;;;18.20;99.90;;;;;;10393884;28;20229;-80
2023/09/28 23:34:45;;;;;;;4.83;4.37;;;18.20;99.90;;;;;;10377538;28;20239;-81
2023/09/28 23:39:47;;;;;;;7.37;4.10;;;18.10;99.90;;;;;;10392824;28;20219;-81
2023/09/28 23:44:50;;;;;;;4.40;4.00;;;18.10;99.90;;;;;;10371615;28;20227;-81
2023/09/28 23:49:53;;;;;;;4.10;3.80;;;18.10;99.90;;;;;;10392396;28;20198;-81
2023/09/28 23:54:55;;;;;;;5.43;4.00;;;18.10;99.90;;;;;;10393493;28;20227;-81
2023/09/28 23:59:58;;;;;;;4.77;4.47;;;18.00;99.90;;;;;;10412796;28;20203;-81
